sensor_id;sensor_type;location;lat;lon;timestamp;temperature;humidity
3921;DHT22;1975;49.356;6.816;2022-12-19T00:00:17;3.60;99.90
3921;DHT22;1975;49.356;6.816;2022-12-19T00:02:42;3.60;99.90
3921;DHT22;1975;49.356;6.816;2022-12-19T00:05:08;3.50;99.90
3921;DHT22;1975;49.356;6.816;2022-12-19T00:07:33;3.60;99.90
3921;DHT22;1975;49.356;6.816;2022-12-19T00:09:59;3.60;99.90
3921;DHT22;1975;49.356;6.816;2022-12-19T00:12:24;3.50;99.90
3921;DHT22;1975;49.356;6.816;2022-12-19T00:14:50;3.40;99.90
3921;DHT22;1975;49.356;6.816;2022-12-19T00:17:16;3.50;99.90
3921;DHT22;1975;49.356;6.816;2022-12-19T00:19:41;3.50;99.90
3921;DHT22;1975;49.356;6.816;2022-12-19T00:22:07;3.50;99.90
3921;DHT22;1975;49.356;6.816;2022-12-19T00:24:32;3.40;99.90
3921;DHT22;1975;49.356;6.816;2022-12-19T00:26:58;3.40;99.90
3921;DHT22;1975;49.356;6.816;2022-12-19T00:29:23;3.50;99.90
3921;DHT22;1975;49.356;6.816;2022-12-19T00:31:49;3.50;99.90
3921;DHT22;1975;49.356;6.816;2022-12-19T00:34:14;3.40;99.90
3921;DHT22;1975;49.356;6.816;2022-12-19T00:36:40;3.40;99.90
3921;DHT22;1975;49.356;6.816;2022-12-19T00:39:05;3.50;99.90
3921;DHT22;1975;49.356;6.816;2022-12-19T00:41:32;3.40;99.90
3921;DHT22;1975;49.356;6.816;2022-12-19T00:46:24;3.30;99.90
3921;DHT22;1975;49.356;6.816;2022-12-19T00:48:49;3.40;99.90
3921;DHT22;1975;49.356;6.816;2022-12-19T00:51:16;3.40;99.90
3921;DHT22;1975;49.356;6.816;2022-12-19T00:53:49;3.30;99.90
3921;DHT22;1975;49.356;6.816;2022-12-19T00:56:16;3.30;99.90
3921;DHT22;1975;49.356;6.816;2022-12-19T00:58:42;3.40;99.90
3921;DHT22;1975;49.356;6.816;2022-12-19T01:01:09;3.40;99.90
3921;DHT22;1975;49.356;6.816;2022-12-19T01:03:34;3.40;99.90
3921;DHT22;1975;49.356;6.816;2022-12-19T01:06:00;3.30;99.90
3921;DHT22;1975;49.356;6.816;2022-12-19T01:08:26;3.40;99.90
3921;DHT22;1975;49.356;6.816;2022-12-19T01:10:51;3.30;99.90
3921;DHT22;1975;49.356;6.816;2022-12-19T01:13:18;3.30;99.90
3921;DHT22;1975;49.356;6.816;2022-12-19T01:15:44;3.30;99.90
3921;DHT22;1975;49.356;6.816;2022-12-19T01:18:09;3.40;99.90
3921;DHT22;1975;49.356;6.816;2022-12-19T01:20:41;3.30;99.90
3921;DHT22;1975;49.356;6.816;2022-12-19T01:23:08;3.30;99.90
3921;DHT22;1975;49.356;6.816;2022-12-19T01:25:34;3.30;99.90
3921;DHT22;1975;49.356;6.816;2022-12-19T01:28:01;3.40;99.90
3921;DHT22;1975;49.356;6.816;2022-12-19T01:30:27;3.40;99.90
3921;DHT22;1975;49.356;6.816;2022-12-19T01:32:53;3.30;99.90
3921;DHT22;1975;49.356;6.816;2022-12-19T01:35:18;3.30;99.90
3921;DHT22;1975;49.356;6.816;2022-12-19T01:37:43;3.40;99.90
3921;DHT22;1975;49.356;6.816;2022-12-19T01:40:12;3.40;99.90
3921;DHT22;1975;49.356;6.816;2022-12-19T01:42:38;3.30;99.90
3921;DHT22;1975;49.356;6.816;2022-12-19T01:47:34;3.30;99.90
3921;DHT22;1975;49.356;6.816;2022-12-19T01:50:00;3.40;99.90
3921;DHT22;1975;49.356;6.816;2022-12-19T01:52:26;3.30;99.90
3921;DHT22;1975;49.356;6.816;2022-12-19T01:54:51;3.30;99.90
3921;DHT22;1975;49.356;6.816;2022-12-19T01:57:17;3.30;99.90
3921;DHT22;1975;49.356;6.816;2022-12-19T01:59:47;3.40;99.90
3921;DHT22;1975;49.356;6.816;2022-12-19T02:02:16;3.40;99.90
3921;DHT22;1975;49.356;6.816;2022-12-19T02:04:43;3.30;99.90
3921;DHT22;1975;49.356;6.816;2022-12-19T02:07:10;3.30;99.90
3921;DHT22;1975;49.356;6.816;2022-12-19T02:09:36;3.40;99.90
3921;DHT22;1975;49.356;6.816;2022-12-19T02:12:03;3.40;99.90
3921;DHT22;1975;49.356;6.816;2022-12-19T02:14:29;3.30;99.90
3921;DHT22;1975;49.356;6.816;2022-12-19T02:22:50;3.40;99.90
3921;DHT22;1975;49.356;6.816;2022-12-19T02:24:54;3.30;99.90
3921;DHT22;1975;49.356;6.816;2022-12-19T02:33:15;3.60;99.90
3921;DHT22;1975;49.356;6.816;2022-12-19T02:36:25;3.70;99.90
3921;DHT22;1975;49.356;6.816;2022-12-19T02:38:36;3.80;99.90
3921;DHT22;1975;49.356;6.816;2022-12-19T02:41:14;3.90;99.90
3921;DHT22;1975;49.356;6.816;2022-12-19T02:43:44;3.90;99.90
3921;DHT22;1975;49.356;6.816;2022-12-19T02:46:10;3.90;99.90
3921;DHT22;1975;49.356;6.816;2022-12-19T02:48:36;3.80;99.90
3921;DHT22;1975;49.356;6.816;2022-12-19T02:51:02;3.70;99.90
3921;DHT22;1975;49.356;6.816;2022-12-19T02:53:27;3.60;99.90
3921;DHT22;1975;49.356;6.816;2022-12-19T02:56:09;3.60;99.90
3921;DHT22;1975;49.356;6.816;2022-12-19T03:06:49;3.60;99.90
3921;DHT22;1975;49.356;6.816;2022-12-19T03:09:20;3.60;99.90
3921;DHT22;1975;49.356;6.816;2022-12-19T03:11:50;3.50;99.90
3921;DHT22;1975;49.356;6.816;2022-12-19T03:14:20;3.50;99.90
3921;DHT22;1975;49.356;6.816;2022-12-19T03:16:46;3.50;99.90
3921;DHT22;1975;49.356;6.816;2022-12-19T03:19:12;3.60;99.90
3921;DHT22;1975;49.356;6.816;2022-12-19T03:21:39;3.50;99.90
3921;DHT22;1975;49.356;6.816;2022-12-19T03:24:06;3.50;99.90
3921;DHT22;1975;49.356;6.816;2022-12-19T03:26:33;3.60;99.90
3921;DHT22;1975;49.356;6.816;2022-12-19T03:29:08;3.60;99.90
3921;DHT22;1975;49.356;6.816;2022-12-19T03:31:35;3.50;99.90
3921;DHT22;1975;49.356;6.816;2022-12-19T03:34:04;3.50;99.90
3921;DHT22;1975;49.356;6.816;2022-12-19T03:36:32;3.50;99.90
3921;DHT22;1975;49.356;6.816;2022-12-19T03:38:59;3.50;99.90
3921;DHT22;1975;49.356;6.816;2022-12-19T03:41:25;3.40;99.90
3921;DHT22;1975;49.356;6.816;2022-12-19T03:44:10;3.50;99.90
3921;DHT22;1975;49.356;6.816;2022-12-19T03:46:38;3.60;99.90
3921;DHT22;1975;49.356;6.816;2022-12-19T03:49:04;3.50;99.90
3921;DHT22;1975;49.356;6.816;2022-12-19T03:51:31;3.50;99.90
3921;DHT22;1975;49.356;6.816;2022-12-19T03:53:59;3.50;99.90
3921;DHT22;1975;49.356;6.816;2022-12-19T03:56:38;3.50;99.90
3921;DHT22;1975;49.356;6.816;2022-12-19T03:59:06;3.50;99.90
3921;DHT22;1975;49.356;6.816;2022-12-19T04:01:33;3.50;99.90
3921;DHT22;1975;49.356;6.816;2022-12-19T04:03:59;3.50;99.90
3921;DHT22;1975;49.356;6.816;2022-12-19T04:06:27;3.60;99.90
3921;DHT22;1975;49.356;6.816;2022-12-19T04:08:54;3.60;99.90
3921;DHT22;1975;49.356;6.816;2022-12-19T04:11:20;3.50;99.90
3921;DHT22;1975;49.356;6.816;2022-12-19T04:13:48;3.50;99.90
3921;DHT22;1975;49.356;6.816;2022-12-19T04:19:01;3.60;99.90
3921;DHT22;1975;49.356;6.816;2022-12-19T04:21:31;3.50;99.90
3921;DHT22;1975;49.356;6.816;2022-12-19T04:24:01;3.50;99.90
3921;DHT22;1975;49.356;6.816;2022-12-19T04:26:27;3.50;99.90
3921;DHT22;1975;49.356;6.816;2022-12-19T04:28:53;3.60;99.90
3921;DHT22;1975;49.356;6.816;2022-12-19T04:31:20;3.60;99.90
3921;DHT22;1975;49.356;6.816;2022-12-19T04:33:46;3.50;99.90
3921;DHT22;1975;49.356;6.816;2022-12-19T04:36:12;3.50;99.90
3921;DHT22;1975;49.356;6.816;2022-12-19T04:38:37;3.60;99.90
3921;DHT22;1975;49.356;6.816;2022-12-19T04:41:03;3.60;99.90
3921;DHT22;1975;49.356;6.816;2022-12-19T04:43:28;3.50;99.90
3921;DHT22;1975;49.356;6.816;2022-12-19T04:45:54;3.50;99.90
3921;DHT22;1975;49.356;6.816;2022-12-19T04:48:20;3.60;99.90
3921;DHT22;1975;49.356;6.816;2022-12-19T04:50:45;3.60;99.90
3921;DHT22;1975;49.356;6.816;2022-12-19T04:53:11;3.50;99.90
3921;DHT22;1975;49.356;6.816;2022-12-19T04:55:36;3.50;99.90
3921;DHT22;1975;49.356;6.816;2022-12-19T04:58:03;3.60;99.90
3921;DHT22;1975;49.356;6.816;2022-12-19T05:00:28;3.60;99.90
3921;DHT22;1975;49.356;6.816;2022-12-19T05:02:53;3.60;99.90
3921;DHT22;1975;49.356;6.816;2022-12-19T05:05:19;3.50;99.90
3921;DHT22;1975;49.356;6.816;2022-12-19T05:07:44;3.60;99.90
3921;DHT22;1975;49.356;6.816;2022-12-19T05:10:11;3.60;99.90
3921;DHT22;1975;49.356;6.816;2022-12-19T05:12:36;3.60;99.90
3921;DHT22;1975;49.356;6.816;2022-12-19T05:15:02;3.50;99.90
3921;DHT22;1975;49.356;6.816;2022-12-19T05:17:27;3.60;99.90
3921;DHT22;1975;49.356;6.816;2022-12-19T05:19:53;3.60;99.90
3921;DHT22;1975;49.356;6.816;2022-12-19T05:22:18;3.60;99.90
3921;DHT22;1975;49.356;6.816;2022-12-19T05:24:44;3.50;99.90
3921;DHT22;1975;49.356;6.816;2022-12-19T05:27:09;3.60;99.90
3921;DHT22;1975;49.356;6.816;2022-12-19T05:29:35;3.60;99.90
3921;DHT22;1975;49.356;6.816;2022-12-19T05:32:00;3.60;99.90
3921;DHT22;1975;49.356;6.816;2022-12-19T05:34:26;3.60;99.90
3921;DHT22;1975;49.356;6.816;2022-12-19T05:36:51;3.60;99.90
3921;DHT22;1975;49.356;6.816;2022-12-19T05:39:17;3.70;99.90
3921;DHT22;1975;49.356;6.816;2022-12-19T05:41:43;3.60;99.90
3921;DHT22;1975;49.356;6.816;2022-12-19T05:44:08;3.60;99.90
3921;DHT22;1975;49.356;6.816;2022-12-19T05:46:34;3.50;99.90
3921;DHT22;1975;49.356;6.816;2022-12-19T05:49:00;3.60;99.90
3921;DHT22;1975;49.356;6.816;2022-12-19T05:51:25;3.70;99.90
3921;DHT22;1975;49.356;6.816;2022-12-19T05:53:52;3.60;99.90
3921;DHT22;1975;49.356;6.816;2022-12-19T05:56:18;3.60;99.90
3921;DHT22;1975;49.356;6.816;2022-12-19T05:58:44;3.60;99.90
3921;DHT22;1975;49.356;6.816;2022-12-19T06:01:12;3.60;99.90
3921;DHT22;1975;49.356;6.816;2022-12-19T06:03:37;3.70;99.90
3921;DHT22;1975;49.356;6.816;2022-12-19T06:06:04;3.60;99.90
3921;DHT22;1975;49.356;6.816;2022-12-19T06:08:29;3.60;99.90
3921;DHT22;1975;49.356;6.816;2022-12-19T06:10:57;3.70;99.90
3921;DHT22;1975;49.356;6.816;2022-12-19T06:13:22;3.70;99.90
3921;DHT22;1975;49.356;6.816;2022-12-19T06:15:47;3.70;99.90
3921;DHT22;1975;49.356;6.816;2022-12-19T06:18:13;3.60;99.90
3921;DHT22;1975;49.356;6.816;2022-12-19T06:20:38;3.70;99.90
3921;DHT22;1975;49.356;6.816;2022-12-19T06:23:04;3.70;99.90
3921;DHT22;1975;49.356;6.816;2022-12-19T06:25:29;3.70;99.90
3921;DHT22;1975;49.356;6.816;2022-12-19T06:27:55;3.60;99.90
3921;DHT22;1975;49.356;6.816;2022-12-19T06:30:20;3.70;99.90
3921;DHT22;1975;49.356;6.816;2022-12-19T06:32:46;3.70;99.90
3921;DHT22;1975;49.356;6.816;2022-12-19T06:35:11;3.70;99.90
3921;DHT22;1975;49.356;6.816;2022-12-19T06:37:37;3.70;99.90
3921;DHT22;1975;49.356;6.816;2022-12-19T06:40:02;3.70;99.90
3921;DHT22;1975;49.356;6.816;2022-12-19T06:42:28;3.70;99.90
3921;DHT22;1975;49.356;6.816;2022-12-19T06:44:53;3.70;99.90
3921;DHT22;1975;49.356;6.816;2022-12-19T06:47:20;3.70;99.90
3921;DHT22;1975;49.356;6.816;2022-12-19T06:49:46;3.60;99.90
3921;DHT22;1975;49.356;6.816;2022-12-19T06:52:13;3.70;99.90
3921;DHT22;1975;49.356;6.816;2022-12-19T06:54:38;3.80;99.90
3921;DHT22;1975;49.356;6.816;2022-12-19T06:57:04;3.80;99.90
3921;DHT22;1975;49.356;6.816;2022-12-19T06:59:29;3.70;99.90
3921;DHT22;1975;49.356;6.816;2022-12-19T07:02:05;3.70;99.90
3921;DHT22;1975;49.356;6.816;2022-12-19T07:04:39;3.80;99.90
3921;DHT22;1975;49.356;6.816;2022-12-19T07:07:05;3.80;99.90
3921;DHT22;1975;49.356;6.816;2022-12-19T07:09:31;3.70;99.90
3921;DHT22;1975;49.356;6.816;2022-12-19T07:11:57;3.70;99.90
3921;DHT22;1975;49.356;6.816;2022-12-19T07:14:23;3.80;99.90
3921;DHT22;1975;49.356;6.816;2022-12-19T07:16:48;3.80;99.90
3921;DHT22;1975;49.356;6.816;2022-12-19T07:19:15;3.70;99.90
3921;DHT22;1975;49.356;6.816;2022-12-19T07:21:41;3.70;99.90
3921;DHT22;1975;49.356;6.816;2022-12-19T07:24:06;3.80;99.90
3921;DHT22;1975;49.356;6.816;2022-12-19T07:26:32;3.80;99.90
3921;DHT22;1975;49.356;6.816;2022-12-19T07:28:58;3.70;99.90
3921;DHT22;1975;49.356;6.816;2022-12-19T07:31:24;3.80;99.90
3921;DHT22;1975;49.356;6.816;2022-12-19T07:33:49;3.80;99.90
3921;DHT22;1975;49.356;6.816;2022-12-19T07:36:15;3.80;99.90
3921;DHT22;1975;49.356;6.816;2022-12-19T07:38:40;3.70;99.90
3921;DHT22;1975;49.356;6.816;2022-12-19T07:41:05;3.80;99.90
3921;DHT22;1975;49.356;6.816;2022-12-19T07:43:31;3.80;99.90
3921;DHT22;1975;49.356;6.816;2022-12-19T07:45:56;3.80;99.90
3921;DHT22;1975;49.356;6.816;2022-12-19T07:48:22;3.80;99.90
3921;DHT22;1975;49.356;6.816;2022-12-19T07:50:48;3.70;99.90
3921;DHT22;1975;49.356;6.816;2022-12-19T07:53:14;3.80;99.90
3921;DHT22;1975;49.356;6.816;2022-12-19T07:55:39;3.80;99.90
3921;DHT22;1975;49.356;6.816;2022-12-19T07:58:05;3.80;99.90
3921;DHT22;1975;49.356;6.816;2022-12-19T08:00:30;3.80;99.90
3921;DHT22;1975;49.356;6.816;2022-12-19T08:02:59;3.80;99.90
3921;DHT22;1975;49.356;6.816;2022-12-19T08:05:24;3.80;99.90
3921;DHT22;1975;49.356;6.816;2022-12-19T08:07:50;3.80;99.90
3921;DHT22;1975;49.356;6.816;2022-12-19T08:10:15;3.80;99.90
3921;DHT22;1975;49.356;6.816;2022-12-19T08:12:41;3.90;99.90
3921;DHT22;1975;49.356;6.816;2022-12-19T08:15:06;3.90;99.90
3921;DHT22;1975;49.356;6.816;2022-12-19T08:17:32;3.80;99.90
3921;DHT22;1975;49.356;6.816;2022-12-19T08:19:57;3.80;99.90
3921;DHT22;1975;49.356;6.816;2022-12-19T08:22:23;3.90;99.90
3921;DHT22;1975;49.356;6.816;2022-12-19T08:24:48;3.90;99.90
3921;DHT22;1975;49.356;6.816;2022-12-19T08:27:14;3.90;99.90
3921;DHT22;1975;49.356;6.816;2022-12-19T08:29:40;3.80;99.90
3921;DHT22;1975;49.356;6.816;2022-12-19T08:32:05;3.90;99.90
3921;DHT22;1975;49.356;6.816;2022-12-19T08:34:31;3.90;99.90
3921;DHT22;1975;49.356;6.816;2022-12-19T08:36:57;3.90;99.90
3921;DHT22;1975;49.356;6.816;2022-12-19T08:39:22;3.80;99.90
3921;DHT22;1975;49.356;6.816;2022-12-19T08:41:47;3.90;99.90
3921;DHT22;1975;49.356;6.816;2022-12-19T08:44:13;3.90;99.90
3921;DHT22;1975;49.356;6.816;2022-12-19T08:46:38;3.90;99.90
3921;DHT22;1975;49.356;6.816;2022-12-19T08:49:04;3.90;99.90
3921;DHT22;1975;49.356;6.816;2022-12-19T08:51:30;3.90;99.90
3921;DHT22;1975;49.356;6.816;2022-12-19T08:53:55;4.00;99.90
3921;DHT22;1975;49.356;6.816;2022-12-19T08:56:20;3.90;99.90
3921;DHT22;1975;49.356;6.816;2022-12-19T08:58:46;3.90;99.90
3921;DHT22;1975;49.356;6.816;2022-12-19T09:01:13;4.00;99.90
3921;DHT22;1975;49.356;6.816;2022-12-19T09:03:40;4.00;99.90
3921;DHT22;1975;49.356;6.816;2022-12-19T09:06:06;4.00;99.90
3921;DHT22;1975;49.356;6.816;2022-12-19T09:08:32;3.90;99.90
3921;DHT22;1975;49.356;6.816;2022-12-19T09:10:59;4.00;99.90
3921;DHT22;1975;49.356;6.816;2022-12-19T09:13:25;4.00;99.90
3921;DHT22;1975;49.356;6.816;2022-12-19T09:16:07;4.00;99.90
3921;DHT22;1975;49.356;6.816;2022-12-19T09:18:33;3.90;99.90
3921;DHT22;1975;49.356;6.816;2022-12-19T09:20:59;4.00;99.90
3921;DHT22;1975;49.356;6.816;2022-12-19T09:23:25;4.00;99.90
3921;DHT22;1975;49.356;6.816;2022-12-19T09:25:52;4.00;99.90
3921;DHT22;1975;49.356;6.816;2022-12-19T09:28:17;4.00;99.90
3921;DHT22;1975;49.356;6.816;2022-12-19T09:30:43;4.10;99.90
3921;DHT22;1975;49.356;6.816;2022-12-19T09:33:09;4.10;99.90
3921;DHT22;1975;49.356;6.816;2022-12-19T09:35:34;4.10;99.90
3921;DHT22;1975;49.356;6.816;2022-12-19T09:38:00;4.00;99.90
3921;DHT22;1975;49.356;6.816;2022-12-19T09:40:28;4.10;99.90
3921;DHT22;1975;49.356;6.816;2022-12-19T09:47:55;4.00;99.90
3921;DHT22;1975;49.356;6.816;2022-12-19T09:50:38;4.20;99.90
3921;DHT22;1975;49.356;6.816;2022-12-19T09:53:10;4.10;99.90
3921;DHT22;1975;49.356;6.816;2022-12-19T09:55:38;4.10;99.90
3921;DHT22;1975;49.356;6.816;2022-12-19T10:00:50;4.20;99.90
3921;DHT22;1975;49.356;6.816;2022-12-19T10:03:19;4.20;99.90
3921;DHT22;1975;49.356;6.816;2022-12-19T10:08:18;4.10;99.90
3921;DHT22;1975;49.356;6.816;2022-12-19T10:10:50;4.20;99.90
3921;DHT22;1975;49.356;6.816;2022-12-19T10:20:55;4.10;99.90
3921;DHT22;1975;49.356;6.816;2022-12-19T10:23:34;3.90;99.90
3921;DHT22;1975;49.356;6.816;2022-12-19T10:31:08;3.70;99.90
3921;DHT22;1975;49.356;6.816;2022-12-19T10:33:41;3.70;99.90
3921;DHT22;1975;49.356;6.816;2022-12-19T10:36:09;3.70;99.90
3921;DHT22;1975;49.356;6.816;2022-12-19T10:46:02;3.60;99.90
3921;DHT22;1975;49.356;6.816;2022-12-19T10:48:32;3.60;99.90
3921;DHT22;1975;49.356;6.816;2022-12-19T10:50:58;3.60;99.90
3921;DHT22;1975;49.356;6.816;2022-12-19T10:53:24;3.60;99.90
3921;DHT22;1975;49.356;6.816;2022-12-19T10:55:51;3.60;99.90
3921;DHT22;1975;49.356;6.816;2022-12-19T11:00:57;3.60;99.90
3921;DHT22;1975;49.356;6.816;2022-12-19T11:03:23;3.60;99.90
3921;DHT22;1975;49.356;6.816;2022-12-19T11:05:51;3.60;99.90
3921;DHT22;1975;49.356;6.816;2022-12-19T11:08:22;3.70;99.90
3921;DHT22;1975;49.356;6.816;2022-12-19T11:10:49;3.70;99.90
3921;DHT22;1975;49.356;6.816;2022-12-19T11:15:48;3.70;99.90
3921;DHT22;1975;49.356;6.816;2022-12-19T11:18:14;3.70;99.90
3921;DHT22;1975;49.356;6.816;2022-12-19T11:20:47;3.70;99.90
3921;DHT22;1975;49.356;6.816;2022-12-19T11:23:17;3.60;99.90
3921;DHT22;1975;49.356;6.816;2022-12-19T11:25:43;3.60;99.90
3921;DHT22;1975;49.356;6.816;2022-12-19T11:30:42;3.70;99.90
3921;DHT22;1975;49.356;6.816;2022-12-19T11:35:44;3.70;99.90
3921;DHT22;1975;49.356;6.816;2022-12-19T11:38:10;3.60;99.90
3921;DHT22;1975;49.356;6.816;2022-12-19T11:40:39;3.60;99.90
3921;DHT22;1975;49.356;6.816;2022-12-19T11:48:16;3.60;99.90
3921;DHT22;1975;49.356;6.816;2022-12-19T11:50:55;3.70;99.90
3921;DHT22;1975;49.356;6.816;2022-12-19T11:53:26;3.80;99.90
3921;DHT22;1975;49.356;6.816;2022-12-19T11:58:18;3.80;99.90
3921;DHT22;1975;49.356;6.816;2022-12-19T12:00:54;3.70;99.90
3921;DHT22;1975;49.356;6.816;2022-12-19T12:05:57;3.70;99.90
3921;DHT22;1975;49.356;6.816;2022-12-19T12:08:33;3.70;99.90
3921;DHT22;1975;49.356;6.816;2022-12-19T12:11:18;3.70;99.90
3921;DHT22;1975;49.356;6.816;2022-12-19T12:14:03;3.70;99.90
3921;DHT22;1975;49.356;6.816;2022-12-19T12:17:08;3.70;99.90
3921;DHT22;1975;49.356;6.816;2022-12-19T12:27:42;3.70;99.90
3921;DHT22;1975;49.356;6.816;2022-12-19T12:30:16;3.70;99.90
3921;DHT22;1975;49.356;6.816;2022-12-19T12:33:05;3.70;99.90
3921;DHT22;1975;49.356;6.816;2022-12-19T12:35:32;3.70;99.90
3921;DHT22;1975;49.356;6.816;2022-12-19T12:43:05;3.70;99.90
3921;DHT22;1975;49.356;6.816;2022-12-19T12:45:40;3.70;99.90
3921;DHT22;1975;49.356;6.816;2022-12-19T12:50:57;3.90;99.90
3921;DHT22;1975;49.356;6.816;2022-12-19T12:53:25;4.00;99.90
3921;DHT22;1975;49.356;6.816;2022-12-19T12:55:53;4.00;99.90
3921;DHT22;1975;49.356;6.816;2022-12-19T13:01:11;4.00;99.90
3921;DHT22;1975;49.356;6.816;2022-12-19T13:03:40;4.00;99.90
3921;DHT22;1975;49.356;6.816;2022-12-19T13:06:18;4.00;99.90
3921;DHT22;1975;49.356;6.816;2022-12-19T13:08:45;3.90;99.90
3921;DHT22;1975;49.356;6.816;2022-12-19T13:11:13;3.90;99.90
3921;DHT22;1975;49.356;6.816;2022-12-19T13:13:59;3.90;99.90
3921;DHT22;1975;49.356;6.816;2022-12-19T13:19:51;3.80;99.90
3921;DHT22;1975;49.356;6.816;2022-12-19T13:24:42;3.90;99.90
3921;DHT22;1975;49.356;6.816;2022-12-19T13:32:18;3.80;99.90
3921;DHT22;1975;49.356;6.816;2022-12-19T13:34:54;3.80;99.90
3921;DHT22;1975;49.356;6.816;2022-12-19T13:37:27;3.80;99.90
3921;DHT22;1975;49.356;6.816;2022-12-19T13:42:22;3.90;99.90
3921;DHT22;1975;49.356;6.816;2022-12-19T13:45:07;3.80;99.90
3921;DHT22;1975;49.356;6.816;2022-12-19T13:47:35;3.80;99.90
3921;DHT22;1975;49.356;6.816;2022-12-19T13:50:05;3.80;99.90
3921;DHT22;1975;49.356;6.816;2022-12-19T13:52:38;3.80;99.90
3921;DHT22;1975;49.356;6.816;2022-12-19T13:55:09;3.80;99.90
3921;DHT22;1975;49.356;6.816;2022-12-19T13:57:36;3.90;99.90
3921;DHT22;1975;49.356;6.816;2022-12-19T14:00:06;3.90;99.90
3921;DHT22;1975;49.356;6.816;2022-12-19T14:02:32;3.90;99.90
3921;DHT22;1975;49.356;6.816;2022-12-19T14:04:59;3.90;99.90
3921;DHT22;1975;49.356;6.816;2022-12-19T14:09:56;3.80;99.90
3921;DHT22;1975;49.356;6.816;2022-12-19T14:12:24;3.80;99.90
3921;DHT22;1975;49.356;6.816;2022-12-19T14:20:38;3.80;99.90
3921;DHT22;1975;49.356;6.816;2022-12-19T14:23:03;3.90;99.90
3921;DHT22;1975;49.356;6.816;2022-12-19T14:25:47;3.80;99.90
3921;DHT22;1975;49.356;6.816;2022-12-19T14:28:16;3.80;99.90
3921;DHT22;1975;49.356;6.816;2022-12-19T14:30:46;3.80;99.90
3921;DHT22;1975;49.356;6.816;2022-12-19T14:33:14;3.80;99.90
3921;DHT22;1975;49.356;6.816;2022-12-19T14:35:47;3.80;99.90
3921;DHT22;1975;49.356;6.816;2022-12-19T14:38:17;3.80;99.90
3921;DHT22;1975;49.356;6.816;2022-12-19T14:40:43;3.80;99.90
3921;DHT22;1975;49.356;6.816;2022-12-19T14:43:13;3.80;99.90
3921;DHT22;1975;49.356;6.816;2022-12-19T14:46:11;3.80;99.90
3921;DHT22;1975;49.356;6.816;2022-12-19T14:49:37;3.80;99.90
3921;DHT22;1975;49.356;6.816;2022-12-19T14:51:35;3.80;99.90
3921;DHT22;1975;49.356;6.816;2022-12-19T14:56:34;3.80;99.90
3921;DHT22;1975;49.356;6.816;2022-12-19T15:01:49;3.70;99.90
3921;DHT22;1975;49.356;6.816;2022-12-19T15:04:16;3.70;99.90
3921;DHT22;1975;49.356;6.816;2022-12-19T15:06:43;3.70;99.90
3921;DHT22;1975;49.356;6.816;2022-12-19T15:09:10;3.70;99.90
3921;DHT22;1975;49.356;6.816;2022-12-19T15:11:43;3.70;99.90
3921;DHT22;1975;49.356;6.816;2022-12-19T15:14:32;3.70;99.90
3921;DHT22;1975;49.356;6.816;2022-12-19T15:17:24;3.70;99.90
3921;DHT22;1975;49.356;6.816;2022-12-19T15:19:49;3.70;99.90
3921;DHT22;1975;49.356;6.816;2022-12-19T15:22:15;3.70;99.90
3921;DHT22;1975;49.356;6.816;2022-12-19T15:24:40;3.70;99.90
3921;DHT22;1975;49.356;6.816;2022-12-19T15:27:15;3.70;99.90
3921;DHT22;1975;49.356;6.816;2022-12-19T15:29:41;3.70;99.90
3921;DHT22;1975;49.356;6.816;2022-12-19T15:32:11;3.70;99.90
3921;DHT22;1975;49.356;6.816;2022-12-19T15:34:37;3.70;99.90
3921;DHT22;1975;49.356;6.816;2022-12-19T15:37:07;3.80;99.90
3921;DHT22;1975;49.356;6.816;2022-12-19T15:39:33;3.80;99.90
3921;DHT22;1975;49.356;6.816;2022-12-19T15:41:59;3.80;99.90
3921;DHT22;1975;49.356;6.816;2022-12-19T15:44:28;3.80;99.90
3921;DHT22;1975;49.356;6.816;2022-12-19T15:46:54;3.80;99.90
3921;DHT22;1975;49.356;6.816;2022-12-19T15:49:20;3.80;99.90
3921;DHT22;1975;49.356;6.816;2022-12-19T15:51:49;3.80;99.90
3921;DHT22;1975;49.356;6.816;2022-12-19T15:54:15;3.80;99.90
3921;DHT22;1975;49.356;6.816;2022-12-19T15:56:50;3.80;99.90
3921;DHT22;1975;49.356;6.816;2022-12-19T16:01:54;3.80;99.90
3921;DHT22;1975;49.356;6.816;2022-12-19T16:04:20;3.80;99.90
3921;DHT22;1975;49.356;6.816;2022-12-19T16:06:46;3.80;99.90
3921;DHT22;1975;49.356;6.816;2022-12-19T16:09:16;3.80;99.90
3921;DHT22;1975;49.356;6.816;2022-12-19T16:11:42;3.80;99.90
3921;DHT22;1975;49.356;6.816;2022-12-19T16:14:08;3.80;99.90
3921;DHT22;1975;49.356;6.816;2022-12-19T16:16:35;3.80;99.90
3921;DHT22;1975;49.356;6.816;2022-12-19T16:19:00;3.80;99.90
3921;DHT22;1975;49.356;6.816;2022-12-19T16:21:26;3.80;99.90
3921;DHT22;1975;49.356;6.816;2022-12-19T16:23:53;3.70;99.90
3921;DHT22;1975;49.356;6.816;2022-12-19T16:26:25;3.70;99.90
3921;DHT22;1975;49.356;6.816;2022-12-19T16:28:51;3.70;99.90
3921;DHT22;1975;49.356;6.816;2022-12-19T16:31:18;3.70;99.90
3921;DHT22;1975;49.356;6.816;2022-12-19T16:33:44;3.70;99.90
3921;DHT22;1975;49.356;6.816;2022-12-19T16:36:09;3.70;99.90
3921;DHT22;1975;49.356;6.816;2022-12-19T16:38:35;3.70;99.90
3921;DHT22;1975;49.356;6.816;2022-12-19T16:41:00;3.70;99.90
3921;DHT22;1975;49.356;6.816;2022-12-19T16:43:32;3.70;99.90
3921;DHT22;1975;49.356;6.816;2022-12-19T16:45:59;3.70;99.90
3921;DHT22;1975;49.356;6.816;2022-12-19T16:48:26;3.70;99.90
3921;DHT22;1975;49.356;6.816;2022-12-19T16:50:54;3.70;99.90
3921;DHT22;1975;49.356;6.816;2022-12-19T16:53:20;3.70;99.90
3921;DHT22;1975;49.356;6.816;2022-12-19T16:55:46;3.70;99.90
3921;DHT22;1975;49.356;6.816;2022-12-19T16:58:19;3.70;99.90
3921;DHT22;1975;49.356;6.816;2022-12-19T17:00:45;3.70;99.90
3921;DHT22;1975;49.356;6.816;2022-12-19T17:03:24;3.70;99.90
3921;DHT22;1975;49.356;6.816;2022-12-19T17:05:51;3.70;99.90
3921;DHT22;1975;49.356;6.816;2022-12-19T17:08:16;3.70;99.90
3921;DHT22;1975;49.356;6.816;2022-12-19T17:10:43;3.70;99.90
3921;DHT22;1975;49.356;6.816;2022-12-19T17:13:09;3.70;99.90
3921;DHT22;1975;49.356;6.816;2022-12-19T17:15:35;3.70;99.90
3921;DHT22;1975;49.356;6.816;2022-12-19T17:18:03;3.70;99.90
3921;DHT22;1975;49.356;6.816;2022-12-19T17:20:34;3.70;99.90
3921;DHT22;1975;49.356;6.816;2022-12-19T17:23:01;3.70;99.90
3921;DHT22;1975;49.356;6.816;2022-12-19T17:25:27;3.70;99.90
3921;DHT22;1975;49.356;6.816;2022-12-19T17:27:53;3.70;99.90
3921;DHT22;1975;49.356;6.816;2022-12-19T17:30:19;3.70;99.90
3921;DHT22;1975;49.356;6.816;2022-12-19T17:32:46;3.70;99.90
3921;DHT22;1975;49.356;6.816;2022-12-19T17:35:16;3.70;99.90
3921;DHT22;1975;49.356;6.816;2022-12-19T17:37:42;3.70;99.90
3921;DHT22;1975;49.356;6.816;2022-12-19T17:40:18;3.70;99.90
3921;DHT22;1975;49.356;6.816;2022-12-19T17:42:44;3.70;99.90
3921;DHT22;1975;49.356;6.816;2022-12-19T17:45:10;3.70;99.90
3921;DHT22;1975;49.356;6.816;2022-12-19T17:47:35;3.70;99.90
3921;DHT22;1975;49.356;6.816;2022-12-19T17:50:01;3.70;99.90
3921;DHT22;1975;49.356;6.816;2022-12-19T17:52:26;3.70;99.90
3921;DHT22;1975;49.356;6.816;2022-12-19T17:54:53;3.70;99.90
3921;DHT22;1975;49.356;6.816;2022-12-19T17:57:19;3.70;99.90
3921;DHT22;1975;49.356;6.816;2022-12-19T17:59:44;3.70;99.90
3921;DHT22;1975;49.356;6.816;2022-12-19T18:02:17;3.70;99.90
3921;DHT22;1975;49.356;6.816;2022-12-19T18:04:43;3.70;99.90
3921;DHT22;1975;49.356;6.816;2022-12-19T18:07:12;3.70;99.90
3921;DHT22;1975;49.356;6.816;2022-12-19T18:09:38;3.70;99.90
3921;DHT22;1975;49.356;6.816;2022-12-19T18:12:04;3.70;99.90
3921;DHT22;1975;49.356;6.816;2022-12-19T18:14:29;3.70;99.90
3921;DHT22;1975;49.356;6.816;2022-12-19T18:16:55;3.70;99.90
3921;DHT22;1975;49.356;6.816;2022-12-19T18:19:21;3.70;99.90
3921;DHT22;1975;49.356;6.816;2022-12-19T18:21:48;3.70;99.90
3921;DHT22;1975;49.356;6.816;2022-12-19T18:24:14;3.70;99.90
3921;DHT22;1975;49.356;6.816;2022-12-19T18:26:43;3.70;99.90